sensor_id;sensor_type;location;lat;lon;timestamp;pressure;altitude;pressure_sealevel;temperature;humidity
21594;BME280;10959;51.328;7.322;2023-04-27T00:01:05;75105.78;;;-147.06;45.05
21594;BME280;10959;51.328;7.322;2023-04-27T00:03:32;75109.88;;;-147.06;45.26
21594;BME280;10959;51.328;7.322;2023-04-27T00:05:58;75118.09;;;-147.06;45.56
21594;BME280;10959;51.328;7.322;2023-04-27T00:08:26;75118.09;;;-147.06;45.41
21594;BME280;10959;51.328;7.322;2023-04-27T00:10:52;75130.38;;;-147.06;45.71
21594;BME280;10959;51.328;7.322;2023-04-27T00:13:19;75130.38;;;-147.06;46.04
21594;BME280;10959;51.328;7.322;2023-04-27T00:15:46;75138.56;;;-147.06;45.92
21594;BME280;10959;51.328;7.322;2023-04-27T00:18:13;75146.78;;;-147.06;46.28
21594;BME280;10959;51.328;7.322;2023-04-27T00:20:39;75146.78;;;-147.06;46.24
21594;BME280;10959;51.328;7.322;2023-04-27T00:23:06;75150.88;;;-147.06;45.98
21594;BME280;10959;51.328;7.322;2023-04-27T00:25:33;75150.88;;;-147.06;46.22
21594;BME280;10959;51.328;7.322;2023-04-27T00:28:00;75159.06;;;-147.06;46.24
21594;BME280;10959;51.328;7.322;2023-04-27T00:30:26;75159.06;;;-147.06;45.94
21594;BME280;10959;51.328;7.322;2023-04-27T00:32:53;75167.25;;;-147.06;46.39
21594;BME280;10959;51.328;7.322;2023-04-27T00:35:19;75165.22;;;-147.06;46.23
21594;BME280;10959;51.328;7.322;2023-04-27T00:37:46;75175.47;;;-147.06;46.43
21594;BME280;10959;51.328;7.322;2023-04-27T00:40:12;75179.56;;;-147.06;46.27
21594;BME280;10959;51.328;7.322;2023-04-27T00:42:40;75185.72;;;-147.06;46.51
21594;BME280;10959;51.328;7.322;2023-04-27T00:45:08;75191.84;;;-147.06;46.54
21594;BME280;10959;51.328;7.322;2023-04-27T00:47:35;75202.09;;;-147.06;46.45
21594;BME280;10959;51.328;7.322;2023-04-27T00:50:02;75204.16;;;-147.06;46.47
21594;BME280;10959;51.328;7.322;2023-04-27T00:52:32;75216.44;;;-147.06;46.67
21594;BME280;10959;51.328;7.322;2023-04-27T00:55:01;75228.75;;;-147.06;46.85
21594;BME280;10959;51.328;7.322;2023-04-27T00:57:29;75232.84;;;-147.06;47.16
21594;BME280;10959;51.328;7.322;2023-04-27T00:59:58;75245.13;;;-147.06;47.12
21594;BME280;10959;51.328;7.322;2023-04-27T01:02:25;75251.28;;;-147.06;47.33
21594;BME280;10959;51.328;7.322;2023-04-27T01:04:51;75255.38;;;-147.06;47.23
21594;BME280;10959;51.328;7.322;2023-04-27T01:07:18;75257.44;;;-147.06;47.35
21594;BME280;10959;51.328;7.322;2023-04-27T01:09:49;75265.63;;;-147.06;47.35
21594;BME280;10959;51.328;7.322;2023-04-27T01:12:16;75265.63;;;-147.06;47.40
21594;BME280;10959;51.328;7.322;2023-04-27T01:14:42;75273.81;;;-147.06;47.65
21594;BME280;10959;51.328;7.322;2023-04-27T01:17:10;75282.03;;;-147.06;47.37
21594;BME280;10959;51.328;7.322;2023-04-27T01:19:36;75279.97;;;-147.06;47.74
21594;BME280;10959;51.328;7.322;2023-04-27T01:22:04;75282.03;;;-147.06;47.73
21594;BME280;10959;51.328;7.322;2023-04-27T01:24:33;75286.13;;;-147.06;47.80
21594;BME280;10959;51.328;7.322;2023-04-27T01:30:07;75298.41;;;-147.06;47.87
21594;BME280;10959;51.328;7.322;2023-04-27T01:32:35;75298.41;;;-147.06;47.87
21594;BME280;10959;51.328;7.322;2023-04-27T01:35:02;75306.59;;;-147.06;48.08
21594;BME280;10959;51.328;7.322;2023-04-27T01:37:29;75310.72;;;-147.06;47.94
21594;BME280;10959;51.328;7.322;2023-04-27T01:39:57;75312.75;;;-147.06;47.90
21594;BME280;10959;51.328;7.322;2023-04-27T01:42:24;75314.81;;;-147.06;48.15
21594;BME280;10959;51.328;7.322;2023-04-27T01:44:50;75323.00;;;-147.06;48.04
21594;BME280;10959;51.328;7.322;2023-04-27T01:47:17;75327.09;;;-147.06;48.22
21594;BME280;10959;51.328;7.322;2023-04-27T01:49:43;75331.19;;;-147.06;48.44
21594;BME280;10959;51.328;7.322;2023-04-27T01:52:10;75339.41;;;-147.06;48.36
21594;BME280;10959;51.328;7.322;2023-04-27T01:54:36;75343.50;;;-147.06;48.40
21594;BME280;10959;51.328;7.322;2023-04-27T01:57:04;75347.59;;;-147.06;48.54
21594;BME280;10959;51.328;7.322;2023-04-27T01:59:30;75355.78;;;-147.06;48.77
21594;BME280;10959;51.328;7.322;2023-04-27T02:01:57;75359.88;;;-147.06;48.89
21594;BME280;10959;51.328;7.322;2023-04-27T02:04:23;75368.09;;;-147.06;48.77
21594;BME280;10959;51.328;7.322;2023-04-27T02:06:49;75370.13;;;-147.06;48.74
21594;BME280;10959;51.328;7.322;2023-04-27T02:09:16;75372.19;;;-147.06;48.79
21594;BME280;10959;51.328;7.322;2023-04-27T02:11:42;75384.47;;;-147.06;48.86
21594;BME280;10959;51.328;7.322;2023-04-27T02:14:10;75388.59;;;-147.06;48.84
21594;BME280;10959;51.328;7.322;2023-04-27T02:16:37;75392.69;;;-147.06;48.86
21594;BME280;10959;51.328;7.322;2023-04-27T02:19:03;75400.88;;;-147.06;48.87
21594;BME280;10959;51.328;7.322;2023-04-27T02:21:30;75396.78;;;-147.06;48.80
21594;BME280;10959;51.328;7.322;2023-04-27T02:23:56;75400.88;;;-147.06;48.79
21594;BME280;10959;51.328;7.322;2023-04-27T02:26:23;75404.97;;;-147.06;49.05
21594;BME280;10959;51.328;7.322;2023-04-27T02:28:54;75409.06;;;-147.06;49.23
21594;BME280;10959;51.328;7.322;2023-04-27T02:31:22;75404.97;;;-147.06;49.00
21594;BME280;10959;51.328;7.322;2023-04-27T02:33:48;75409.06;;;-147.06;49.13
21594;BME280;10959;51.328;7.322;2023-04-27T02:36:15;75421.38;;;-147.06;49.49
21594;BME280;10959;51.328;7.322;2023-04-27T02:38:41;75423.41;;;-147.06;49.86
21594;BME280;10959;51.328;7.322;2023-04-27T02:41:07;75425.47;;;-147.06;49.52
21594;BME280;10959;51.328;7.322;2023-04-27T02:43:34;75425.47;;;-147.06;49.59
21594;BME280;10959;51.328;7.322;2023-04-27T02:46:01;75421.38;;;-147.06;49.59
21594;BME280;10959;51.328;7.322;2023-04-27T02:48:29;75437.75;;;-147.06;49.70
21594;BME280;10959;51.328;7.322;2023-04-27T02:50:55;75441.84;;;-147.06;50.02
21594;BME280;10959;51.328;7.322;2023-04-27T02:53:22;75450.06;;;-147.06;49.76
21594;BME280;10959;51.328;7.322;2023-04-27T02:55:48;75458.25;;;-147.06;49.95
21594;BME280;10959;51.328;7.322;2023-04-27T02:58:15;75454.16;;;-147.06;50.04
21594;BME280;10959;51.328;7.322;2023-04-27T03:00:42;75454.16;;;-147.06;50.02
21594;BME280;10959;51.328;7.322;2023-04-27T03:03:09;75464.41;;;-147.06;49.88
21594;BME280;10959;51.328;7.322;2023-04-27T03:05:37;75458.25;;;-147.06;49.79
21594;BME280;10959;51.328;7.322;2023-04-27T03:08:04;75462.34;;;-147.06;49.89
21594;BME280;10959;51.328;7.322;2023-04-27T03:10:30;75466.44;;;-147.06;49.95
21594;BME280;10959;51.328;7.322;2023-04-27T03:12:57;75466.44;;;-147.06;49.86
21594;BME280;10959;51.328;7.322;2023-04-27T03:15:24;75472.59;;;-147.06;50.07
21594;BME280;10959;51.328;7.322;2023-04-27T03:17:50;75466.44;;;-147.06;49.95
21594;BME280;10959;51.328;7.322;2023-04-27T03:20:17;75470.56;;;-147.06;49.86
21594;BME280;10959;51.328;7.322;2023-04-27T03:22:44;75474.66;;;-147.06;49.67
21594;BME280;10959;51.328;7.322;2023-04-27T03:25:11;75474.66;;;-147.06;49.88
21594;BME280;10959;51.328;7.322;2023-04-27T03:27:37;75476.69;;;-147.06;49.93
21594;BME280;10959;51.328;7.322;2023-04-27T03:30:05;75478.75;;;-147.06;49.97
21594;BME280;10959;51.328;7.322;2023-04-27T03:32:31;75486.94;;;-147.06;50.04
21594;BME280;10959;51.328;7.322;2023-04-27T03:34:58;75482.84;;;-147.06;50.14
21594;BME280;10959;51.328;7.322;2023-04-27T03:37:24;75486.94;;;-147.06;50.21
21594;BME280;10959;51.328;7.322;2023-04-27T03:39:53;75484.91;;;-147.06;50.15
21594;BME280;10959;51.328;7.322;2023-04-27T03:42:19;75491.03;;;-147.06;50.03
21594;BME280;10959;51.328;7.322;2023-04-27T03:44:46;75501.28;;;-147.06;50.01
21594;BME280;10959;51.328;7.322;2023-04-27T03:47:12;75507.44;;;-147.06;50.30
21594;BME280;10959;51.328;7.322;2023-04-27T03:49:39;75507.44;;;-147.06;50.15
21594;BME280;10959;51.328;7.322;2023-04-27T03:52:05;75507.44;;;-147.06;49.98
21594;BME280;10959;51.328;7.322;2023-04-27T03:54:32;75519.75;;;-147.06;49.99
21594;BME280;10959;51.328;7.322;2023-04-27T03:56:59;75519.75;;;-147.06;50.07
21594;BME280;10959;51.328;7.322;2023-04-27T03:59:27;75527.94;;;-147.06;49.94
21594;BME280;10959;51.328;7.322;2023-04-27T04:01:54;75523.84;;;-147.06;50.27
21594;BME280;10959;51.328;7.322;2023-04-27T04:04:21;75527.94;;;-147.06;50.25
21594;BME280;10959;51.328;7.322;2023-04-27T04:06:48;75536.13;;;-147.06;50.10
21594;BME280;10959;51.328;7.322;2023-04-27T04:09:14;75536.13;;;-147.06;50.22
21594;BME280;10959;51.328;7.322;2023-04-27T04:11:41;75538.19;;;-147.06;50.57
21594;BME280;10959;51.328;7.322;2023-04-27T04:14:09;75544.31;;;-147.06;50.30
21594;BME280;10959;51.328;7.322;2023-04-27T04:16:35;75556.63;;;-147.06;50.42
21594;BME280;10959;51.328;7.322;2023-04-27T04:19:02;75550.47;;;-147.06;50.53
21594;BME280;10959;51.328;7.322;2023-04-27T04:21:28;75556.63;;;-147.06;50.36
21594;BME280;10959;51.328;7.322;2023-04-27T04:23:55;75562.78;;;-147.06;50.46
21594;BME280;10959;51.328;7.322;2023-04-27T04:26:22;75564.81;;;-147.06;50.51
21594;BME280;10959;51.328;7.322;2023-04-27T04:28:48;75568.91;;;-147.06;50.54
21594;BME280;10959;51.328;7.322;2023-04-27T04:31:16;75568.91;;;-147.06;50.55
21594;BME280;10959;51.328;7.322;2023-04-27T04:33:43;75579.16;;;-147.06;50.62
21594;BME280;10959;51.328;7.322;2023-04-27T04:36:09;75581.22;;;-147.06;50.74
21594;BME280;10959;51.328;7.322;2023-04-27T04:38:36;75581.22;;;-147.06;50.93
21594;BME280;10959;51.328;7.322;2023-04-27T04:41:02;75585.31;;;-147.06;50.85
21594;BME280;10959;51.328;7.322;2023-04-27T04:43:29;75581.22;;;-147.06;50.86
21594;BME280;10959;51.328;7.322;2023-04-27T04:45:55;75573.03;;;-147.06;50.77
21594;BME280;10959;51.328;7.322;2023-04-27T04:48:23;75573.03;;;-147.06;51.13
21594;BME280;10959;51.328;7.322;2023-04-27T04:50:49;75573.03;;;-147.06;51.46
21594;BME280;10959;51.328;7.322;2023-04-27T04:53:16;75568.91;;;-147.06;51.89
21594;BME280;10959;51.328;7.322;2023-04-27T04:55:42;75568.91;;;-147.06;51.94
21594;BME280;10959;51.328;7.322;2023-04-27T04:58:09;75564.81;;;-147.06;52.26
21594;BME280;10959;51.328;7.322;2023-04-27T05:00:35;75556.63;;;-147.06;52.38
21594;BME280;10959;51.328;7.322;2023-04-27T05:03:02;75548.44;;;-147.06;52.31
21594;BME280;10959;51.328;7.322;2023-04-27T05:05:30;75536.13;;;-147.06;52.29
21594;BME280;10959;51.328;7.322;2023-04-27T05:07:56;75527.94;;;-147.06;52.22
21594;BME280;10959;51.328;7.322;2023-04-27T05:10:22;75513.59;;;-147.06;52.15
21594;BME280;10959;51.328;7.322;2023-04-27T05:12:49;75493.09;;;-147.06;52.01
21594;BME280;10959;51.328;7.322;2023-04-27T05:15:15;75480.78;;;-147.06;51.92
21594;BME280;10959;51.328;7.322;2023-04-27T05:17:42;75470.56;;;-147.06;51.76
21594;BME280;10959;51.328;7.322;2023-04-27T05:20:09;75462.34;;;-147.06;51.85
21594;BME280;10959;51.328;7.322;2023-04-27T05:22:37;75445.97;;;-147.06;51.96
21594;BME280;10959;51.328;7.322;2023-04-27T05:25:04;75437.75;;;-147.06;51.85
21594;BME280;10959;51.328;7.322;2023-04-27T05:27:31;75429.56;;;-147.06;52.09
21594;BME280;10959;51.328;7.322;2023-04-27T05:29:57;75425.47;;;-147.06;52.06
21594;BME280;10959;51.328;7.322;2023-04-27T05:32:24;75425.47;;;-147.06;51.99
21594;BME280;10959;51.328;7.322;2023-04-27T05:34:50;75413.16;;;-147.06;51.85
21594;BME280;10959;51.328;7.322;2023-04-27T05:37:17;75396.78;;;-147.06;51.59
21594;BME280;10959;51.328;7.322;2023-04-27T05:39:45;75378.34;;;-147.06;51.72
21594;BME280;10959;51.328;7.322;2023-04-27T05:42:11;75372.19;;;-147.06;51.69
21594;BME280;10959;51.328;7.322;2023-04-27T05:44:38;75364.00;;;-147.06;51.59
21594;BME280;10959;51.328;7.322;2023-04-27T05:47:04;75366.03;;;-147.06;51.54
21594;BME280;10959;51.328;7.322;2023-04-27T05:49:31;75355.78;;;-147.06;51.60
21594;BME280;10959;51.328;7.322;2023-04-27T05:51:57;75335.28;;;-147.06;51.42
21594;BME280;10959;51.328;7.322;2023-04-27T05:54:24;75323.00;;;-147.06;51.36
21594;BME280;10959;51.328;7.322;2023-04-27T05:56:53;75306.59;;;-147.06;50.92
21594;BME280;10959;51.328;7.322;2023-04-27T05:59:19;75310.72;;;-147.06;51.36
21594;BME280;10959;51.328;7.322;2023-04-27T06:01:46;75308.66;;;-147.06;50.93
21594;BME280;10959;51.328;7.322;2023-04-27T06:04:12;75306.59;;;-147.06;51.33
21594;BME280;10959;51.328;7.322;2023-04-27T06:06:38;75302.50;;;-147.06;51.08
21594;BME280;10959;51.328;7.322;2023-04-27T06:09:05;75298.41;;;-147.06;51.18
21594;BME280;10959;51.328;7.322;2023-04-27T06:11:32;75298.41;;;-147.06;50.97
21594;BME280;10959;51.328;7.322;2023-04-27T06:14:00;75265.63;;;-147.06;50.92
21594;BME280;10959;51.328;7.322;2023-04-27T06:16:26;75261.53;;;-147.06;50.75
21594;BME280;10959;51.328;7.322;2023-04-27T06:18:53;75265.63;;;-147.06;50.83
21594;BME280;10959;51.328;7.322;2023-04-27T06:21:19;75265.63;;;-147.06;50.97
21594;BME280;10959;51.328;7.322;2023-04-27T06:23:45;75257.44;;;-147.06;50.69
21594;BME280;10959;51.328;7.322;2023-04-27T06:26:12;75265.63;;;-147.06;50.56
21594;BME280;10959;51.328;7.322;2023-04-27T06:28:38;75286.13;;;-147.06;50.74
21594;BME280;10959;51.328;7.322;2023-04-27T06:31:06;75269.72;;;-147.06;50.92
21594;BME280;10959;51.328;7.322;2023-04-27T06:33:32;75282.03;;;-147.06;50.69
21594;BME280;10959;51.328;7.322;2023-04-27T06:35:59;75265.63;;;-147.06;50.03
21594;BME280;10959;51.328;7.322;2023-04-27T06:38:26;75249.22;;;-147.06;49.59
21594;BME280;10959;51.328;7.322;2023-04-27T06:40:52;75226.69;;;-147.06;49.44
21594;BME280;10959;51.328;7.322;2023-04-27T06:43:19;75286.13;;;-147.06;48.97
21594;BME280;10959;51.328;7.322;2023-04-27T06:45:45;75241.03;;;-147.06;48.83
21594;BME280;10959;51.328;7.322;2023-04-27T06:48:32;75269.72;;;-147.06;48.19
21594;BME280;10959;51.328;7.322;2023-04-27T06:50:59;75212.34;;;-147.06;48.20
21594;BME280;10959;51.328;7.322;2023-04-27T06:53:25;75214.41;;;-147.06;47.43
21594;BME280;10959;51.328;7.322;2023-04-27T06:55:52;75208.25;;;-147.06;47.26
21594;BME280;10959;51.328;7.322;2023-04-27T06:58:18;75187.75;;;-147.06;46.99
21594;BME280;10959;51.328;7.322;2023-04-27T07:00:45;75134.47;;;-147.06;47.02
21594;BME280;10959;51.328;7.322;2023-04-27T07:03:11;75097.59;;;-147.06;46.66
21594;BME280;10959;51.328;7.322;2023-04-27T07:05:40;75130.38;;;-147.06;45.48
21594;BME280;10959;51.328;7.322;2023-04-27T07:08:06;75079.16;;;-147.06;45.41
21594;BME280;10959;51.328;7.322;2023-04-27T07:10:33;75089.41;;;-147.06;45.38
21594;BME280;10959;51.328;7.322;2023-04-27T07:12:59;75044.31;;;-147.06;45.08
21594;BME280;10959;51.328;7.322;2023-04-27T07:15:26;75011.53;;;-147.06;44.97
21594;BME280;10959;51.328;7.322;2023-04-27T07:17:52;75019.72;;;-147.06;44.83
21594;BME280;10959;51.328;7.322;2023-04-27T07:20:19;74966.44;;;-147.06;44.32
21594;BME280;10959;51.328;7.322;2023-04-27T07:22:47;74937.75;;;-147.06;44.34
21594;BME280;10959;51.328;7.322;2023-04-27T07:25:13;74921.38;;;-147.06;43.88
21594;BME280;10959;51.328;7.322;2023-04-27T07:27:40;74929.56;;;-147.06;43.35
21594;BME280;10959;51.328;7.322;2023-04-27T07:30:07;74888.59;;;-147.06;43.71
21594;BME280;10959;51.328;7.322;2023-04-27T07:32:38;74904.97;;;-147.06;42.76
21594;BME280;10959;51.328;7.322;2023-04-27T07:35:05;74892.69;;;-147.06;42.64
21594;BME280;10959;51.328;7.322;2023-04-27T07:37:31;74859.91;;;-147.06;42.87
21594;BME280;10959;51.328;7.322;2023-04-27T07:39:59;74843.50;;;-147.06;42.03
21594;BME280;10959;51.328;7.322;2023-04-27T07:42:26;74859.91;;;-147.06;41.80
21594;BME280;10959;51.328;7.322;2023-04-27T07:44:53;74802.53;;;-147.06;41.96
21594;BME280;10959;51.328;7.322;2023-04-27T07:47:19;74788.19;;;-147.06;41.52
21594;BME280;10959;51.328;7.322;2023-04-27T07:49:46;74782.03;;;-147.06;41.14
21594;BME280;10959;51.328;7.322;2023-04-27T07:52:12;74782.03;;;-147.06;41.31
21594;BME280;10959;51.328;7.322;2023-04-27T07:54:39;74741.06;;;-147.06;41.47
21594;BME280;10959;51.328;7.322;2023-04-27T07:57:10;74724.66;;;-147.06;40.77
21594;BME280;10959;51.328;7.322;2023-04-27T07:59:37;74741.06;;;-147.06;40.20
21594;BME280;10959;51.328;7.322;2023-04-27T08:02:03;74700.09;;;-147.06;40.65
21594;BME280;10959;51.328;7.322;2023-04-27T08:04:30;74687.78;;;-147.06;40.17
21594;BME280;10959;51.328;7.322;2023-04-27T08:06:56;74669.34;;;-147.06;39.54
21594;BME280;10959;51.328;7.322;2023-04-27T08:09:23;74661.16;;;-147.06;39.42
21594;BME280;10959;51.328;7.322;2023-04-27T08:11:49;74636.56;;;-147.06;39.93
21594;BME280;10959;51.328;7.322;2023-04-27T08:14:17;74593.53;;;-147.06;39.25
21594;BME280;10959;51.328;7.322;2023-04-27T08:16:43;74556.66;;;-147.06;38.54
21594;BME280;10959;51.328;7.322;2023-04-27T08:19:10;74577.16;;;-147.06;38.42
21594;BME280;10959;51.328;7.322;2023-04-27T08:21:36;74532.06;;;-147.06;39.04
21594;BME280;10959;51.328;7.322;2023-04-27T08:24:05;74536.16;;;-147.06;38.56
21594;BME280;10959;51.328;7.322;2023-04-27T08:26:31;74532.06;;;-147.06;38.33
21594;BME280;10959;51.328;7.322;2023-04-27T08:28:59;74495.19;;;-147.06;38.41
21594;BME280;10959;51.328;7.322;2023-04-27T08:31:27;74499.28;;;-147.06;38.23
21594;BME280;10959;51.328;7.322;2023-04-27T08:33:54;74474.69;;;-147.06;37.52
21594;BME280;10959;51.328;7.322;2023-04-27T08:36:22;74495.19;;;-147.06;36.90
21594;BME280;10959;51.328;7.322;2023-04-27T08:38:50;74437.81;;;-147.06;37.17
21594;BME280;10959;51.328;7.322;2023-04-27T08:41:17;74376.38;;;-147.06;37.80
21594;BME280;10959;51.328;7.322;2023-04-27T08:43:45;74333.34;;;-147.06;37.20
21594;BME280;10959;51.328;7.322;2023-04-27T08:46:17;74405.03;;;-147.06;35.61
21594;BME280;10959;51.328;7.322;2023-04-27T08:48:45;74437.81;;;-147.06;36.25
21594;BME280;10959;51.328;7.322;2023-04-27T08:51:13;74413.25;;;-147.06;36.73
21594;BME280;10959;51.328;7.322;2023-04-27T08:53:46;74446.03;;;-147.06;35.59
21594;BME280;10959;51.328;7.322;2023-04-27T08:56:13;74400.94;;;-147.06;36.62
21594;BME280;10959;51.328;7.322;2023-04-27T08:58:40;74355.88;;;-147.06;36.11
21594;BME280;10959;51.328;7.322;2023-04-27T09:01:07;74294.41;;;-147.06;35.46
21594;BME280;10959;51.328;7.322;2023-04-27T09:03:35;74249.34;;;-147.06;35.68
21594;BME280;10959;51.328;7.322;2023-04-27T09:06:04;74249.34;;;-147.06;35.01
21594;BME280;10959;51.328;7.322;2023-04-27T09:08:40;74327.19;;;-147.06;33.59
21594;BME280;10959;51.328;7.322;2023-04-27T09:11:07;74333.34;;;-147.06;34.24
21594;BME280;10959;51.328;7.322;2023-04-27T09:13:34;74392.75;;;-147.06;33.61
21594;BME280;10959;51.328;7.322;2023-04-27T09:16:00;74347.69;;;-147.06;34.22
21594;BME280;10959;51.328;7.322;2023-04-27T09:18:27;74314.91;;;-147.06;33.63
21594;BME280;10959;51.328;7.322;2023-04-27T09:20:54;74294.41;;;-147.06;33.98
21594;BME280;10959;51.328;7.322;2023-04-27T09:23:29;74359.97;;;-147.06;33.74
21594;BME280;10959;51.328;7.322;2023-04-27T09:25:57;74341.53;;;-147.06;33.51
21594;BME280;10959;51.328;7.322;2023-04-27T09:28:24;74282.13;;;-147.06;33.93
21594;BME280;10959;51.328;7.322;2023-04-27T09:30:52;74230.91;;;-147.06;34.66
21594;BME280;10959;51.328;7.322;2023-04-27T09:33:24;74175.59;;;-147.06;33.79
21594;BME280;10959;51.328;7.322;2023-04-27T09:35:50;74208.38;;;-147.06;32.82
21594;BME280;10959;51.328;7.322;2023-04-27T09:38:18;74200.19;;;-147.06;33.21
21594;BME280;10959;51.328;7.322;2023-04-27T09:40:46;74153.06;;;-147.06;34.00
21594;BME280;10959;51.328;7.322;2023-04-27T09:43:12;74093.66;;;-147.06;33.24
21594;BME280;10959;51.328;7.322;2023-04-27T09:45:40;74126.41;;;-147.06;31.44
21594;BME280;10959;51.328;7.322;2023-04-27T09:48:07;74267.78;;;-147.06;32.02
21594;BME280;10959;51.328;7.322;2023-04-27T09:50:34;74278.03;;;-147.06;32.64
21594;BME280;10959;51.328;7.322;2023-04-27T09:53:01;74273.94;;;-147.06;32.87
21594;BME280;10959;51.328;7.322;2023-04-27T09:55:32;74319.00;;;-147.06;32.74
21594;BME280;10959;51.328;7.322;2023-04-27T09:58:13;74364.06;;;-147.06;32.67
21594;BME280;10959;51.328;7.322;2023-04-27T10:00:51;74294.41;;;-147.06;33.87
21594;BME280;10959;51.328;7.322;2023-04-27T10:03:28;74265.72;;;-147.06;32.40
21594;BME280;10959;51.328;7.322;2023-04-27T10:06:31;74282.13;;;-147.06;33.19
21594;BME280;10959;51.328;7.322;2023-04-27T10:09:08;74214.50;;;-147.06;32.90
21594;BME280;10959;51.328;7.322;2023-04-27T10:11:39;74282.13;;;-147.06;31.79
21594;BME280;10959;51.328;7.322;2023-04-27T10:14:08;74319.00;;;-147.06;32.20
21594;BME280;10959;51.328;7.322;2023-04-27T10:16:42;74347.69;;;-147.06;31.86
21594;BME280;10959;51.328;7.322;2023-04-27T10:19:09;74298.50;;;-147.06;32.82
21594;BME280;10959;51.328;7.322;2023-04-27T10:21:36;74241.16;;;-147.06;33.14
21594;BME280;10959;51.328;7.322;2023-04-27T10:24:06;74237.06;;;-147.06;32.33
21594;BME280;10959;51.328;7.322;2023-04-27T10:26:33;74200.19;;;-147.06;32.31
21594;BME280;10959;51.328;7.322;2023-04-27T10:29:04;74142.81;;;-147.06;33.17
21594;BME280;10959;51.328;7.322;2023-04-27T10:31:33;74187.88;;;-147.06;31.49
21594;BME280;10959;51.328;7.322;2023-04-27T10:34:07;74181.72;;;-147.06;32.73
21594;BME280;10959;51.328;7.322;2023-04-27T10:36:34;74126.41;;;-147.06;33.18
21594;BME280;10959;51.328;7.322;2023-04-27T10:39:02;74073.16;;;-147.06;31.76
21594;BME280;10959;51.328;7.322;2023-04-27T10:41:33;74077.25;;;-147.06;31.63
21594;BME280;10959;51.328;7.322;2023-04-27T10:44:12;74032.19;;;-147.06;32.71
21594;BME280;10959;51.328;7.322;2023-04-27T10:46:49;73958.44;;;-147.06;32.57
21594;BME280;10959;51.328;7.322;2023-04-27T10:49:16;73911.31;;;-147.06;31.18
21594;BME280;10959;51.328;7.322;2023-04-27T10:51:42;73968.69;;;-147.06;31.52
21594;BME280;10959;51.328;7.322;2023-04-27T10:54:10;73978.91;;;-147.06;30.51
21594;BME280;10959;51.328;7.322;2023-04-27T10:56:36;74003.50;;;-147.06;30.21
21594;BME280;10959;51.328;7.322;2023-04-27T10:59:04;74024.00;;;-147.06;30.25
21594;BME280;10959;51.328;7.322;2023-04-27T11:01:31;74034.22;;;-147.06;30.84
21594;BME280;10959;51.328;7.322;2023-04-27T11:04:00;73974.81;;;-147.06;31.23
21594;BME280;10959;51.328;7.322;2023-04-27T11:06:28;74028.09;;;-147.06;30.80
21594;BME280;10959;51.328;7.322;2023-04-27T11:08:56;74032.19;;;-147.06;31.34
21594;BME280;10959;51.328;7.322;2023-04-27T11:11:22;73995.31;;;-147.06;31.61
21594;BME280;10959;51.328;7.322;2023-04-27T11:13:50;73946.16;;;-147.06;31.63
21594;BME280;10959;51.328;7.322;2023-04-27T11:16:17;73937.94;;;-147.06;30.38
21594;BME280;10959;51.328;7.322;2023-04-27T11:18:44;73954.34;;;-147.06;29.58
21594;BME280;10959;51.328;7.322;2023-04-27T11:21:14;73952.28;;;-147.06;31.70
21594;BME280;10959;51.328;7.322;2023-04-27T11:23:41;73882.63;;;-147.06;31.28
21594;BME280;10959;51.328;7.322;2023-04-27T11:26:09;73884.69;;;-147.06;29.57
21594;BME280;10959;51.328;7.322;2023-04-27T11:28:36;73933.84;;;-147.06;30.77
21594;BME280;10959;51.328;7.322;2023-04-27T11:31:02;73915.41;;;-147.06;31.59
21594;BME280;10959;51.328;7.322;2023-04-27T11:33:29;73880.59;;;-147.06;30.68
21594;BME280;10959;51.328;7.322;2023-04-27T11:35:56;73847.81;;;-147.06;31.23
21594;BME280;10959;51.328;7.322;2023-04-27T11:38:24;73819.13;;;-147.06;30.78
21594;BME280;10959;51.328;7.322;2023-04-27T11:40:58;73849.88;;;-147.06;30.36
21594;BME280;10959;51.328;7.322;2023-04-27T11:43:25;73892.88;;;-147.06;30.19
21594;BME280;10959;51.328;7.322;2023-04-27T11:45:52;73905.19;;;-147.06;30.61
21594;BME280;10959;51.328;7.322;2023-04-27T11:48:19;73937.94;;;-147.06;29.86
21594;BME280;10959;51.328;7.322;2023-04-27T11:50:46;73966.63;;;-147.06;30.22
21594;BME280;10959;51.328;7.322;2023-04-27T11:53:13;73933.84;;;-147.06;30.49
21594;BME280;10959;51.328;7.322;2023-04-27T11:55:41;73974.81;;;-147.06;30.04
21594;BME280;10959;51.328;7.322;2023-04-27T11:58:12;73966.63;;;-147.06;30.62
21594;BME280;10959;51.328;7.322;2023-04-27T12:00:39;73909.28;;;-147.06;31.02
21594;BME280;10959;51.328;7.322;2023-04-27T12:03:05;73831.44;;;-147.06;31.91
21594;BME280;10959;51.328;7.322;2023-04-27T12:05:34;73761.78;;;-147.06;31.97
21594;BME280;10959;51.328;7.322;2023-04-27T12:08:01;73729.00;;;-147.06;30.57
21594;BME280;10959;51.328;7.322;2023-04-27T12:10:27;73737.19;;;-147.06;28.79
21594;BME280;10959;51.328;7.322;2023-04-27T12:12:55;73729.00;;;-147.06;29.86
21594;BME280;10959;51.328;7.322;2023-04-27T12:15:21;73704.44;;;-147.06;30.97
21594;BME280;10959;51.328;7.322;2023-04-27T12:17:48;73667.56;;;-147.06;31.28
21594;BME280;10959;51.328;7.322;2023-04-27T12:20:14;73638.88;;;-147.06;29.72
21594;BME280;10959;51.328;7.322;2023-04-27T12:22:41;73663.47;;;-147.06;29.29
21594;BME280;10959;51.328;7.322;2023-04-27T12:25:07;73671.66;;;-147.06;30.04
21594;BME280;10959;51.328;7.322;2023-04-27T12:27:34;73708.53;;;-147.06;28.68
21594;BME280;10959;51.328;7.322;2023-04-27T12:30:01;73757.69;;;-147.06;29.64
21594;BME280;10959;51.328;7.322;2023-04-27T12:32:28;73755.63;;;-147.06;30.31
21594;BME280;10959;51.328;7.322;2023-04-27T12:34:56;73757.69;;;-147.06;29.11
21594;BME280;10959;51.328;7.322;2023-04-27T12:37:22;73790.47;;;-147.06;28.79
21594;BME280;10959;51.328;7.322;2023-04-27T12:39:48;73794.56;;;-147.06;30.19
21594;BME280;10959;51.328;7.322;2023-04-27T12:42:15;73808.91;;;-147.06;29.38
21594;BME280;10959;51.328;7.322;2023-04-27T12:44:43;73839.63;;;-147.06;29.72